createdAt,value
2022-09-06T00:02:12.655Z,65.64
2022-09-06T00:04:39.022Z,65.61
2022-09-06T00:07:05.422Z,65.80
2022-09-06T00:09:31.785Z,65.88
2022-09-06T00:11:58.171Z,65.89
2022-09-06T00:14:24.569Z,66.07
2022-09-06T00:16:50.932Z,65.78
2022-09-06T00:19:17.357Z,65.37
2022-09-06T00:21:43.771Z,65.28
2022-09-06T00:24:10.186Z,64.87
2022-09-06T00:26:36.623Z,64.69
2022-09-06T00:29:02.987Z,65.03
2022-09-06T00:31:29.465Z,65.05
2022-09-06T00:33:55.781Z,65.23
2022-09-06T00:36:22.175Z,65.11
2022-09-06T00:38:48.540Z,65.05
2022-09-06T00:41:15.018Z,65.37
2022-09-06T00:43:41.388Z,65.23
2022-09-06T00:46:07.855Z,65.11
2022-09-06T00:48:34.214Z,65.13
2022-09-06T00:51:00.571Z,65.47
2022-09-06T00:53:27.126Z,65.64
2022-09-06T00:55:53.463Z,65.73
2022-09-06T00:58:20.015Z,65.81
2022-09-06T01:00:46.334Z,65.88
2022-09-06T01:03:12.723Z,65.87
2022-09-06T01:05:39.077Z,65.86
2022-09-06T01:08:05.505Z,65.81
2022-09-06T01:10:31.905Z,65.93
2022-09-06T01:12:58.339Z,65.95
2022-09-06T01:15:24.794Z,66.07
2022-09-06T01:17:51.105Z,66.04
2022-09-06T01:20:17.463Z,65.87
2022-09-06T01:22:43.829Z,66.02
2022-09-06T01:25:10.225Z,66.08
2022-09-06T01:27:36.594Z,66.36
2022-09-06T01:30:02.954Z,66.34
2022-09-06T01:32:29.357Z,66.40
2022-09-06T01:34:55.826Z,66.30
2022-09-06T01:37:22.193Z,66.25
2022-09-06T01:39:48.685Z,66.00
2022-09-06T01:42:14.961Z,66.25
2022-09-06T01:44:41.335Z,66.47
2022-09-06T01:47:07.789Z,66.95
2022-09-06T01:49:34.152Z,67.00
2022-09-06T01:52:00.552Z,67.06
2022-09-06T01:54:26.977Z,66.87
2022-09-06T01:56:53.345Z,67.00
2022-09-06T01:59:19.709Z,67.37
2022-09-06T02:01:46.198Z,67.54
2022-09-06T02:04:12.510Z,67.40
2022-09-06T02:06:38.938Z,67.34
2022-09-06T02:09:05.308Z,67.64
2022-09-06T02:11:31.705Z,67.58
2022-09-06T02:13:58.141Z,67.65
2022-09-06T02:16:24.595Z,67.86
2022-09-06T02:18:50.934Z,68.08
2022-09-06T02:21:17.340Z,68.19
2022-09-06T02:23:43.750Z,68.32
2022-09-06T02:26:10.206Z,68.32
2022-09-06T02:28:36.637Z,68.20
2022-09-06T02:31:03.153Z,68.43
2022-09-06T02:33:29.410Z,68.59
2022-09-06T02:35:55.780Z,68.67
2022-09-06T02:38:22.165Z,68.99
2022-09-06T02:40:48.552Z,69.02
2022-09-06T02:43:14.935Z,69.64
2022-09-06T02:45:41.318Z,70.82
2022-09-06T02:48:07.668Z,71.15
2022-09-06T02:50:34.126Z,71.65
2022-09-06T02:53:00.559Z,72.30
2022-09-06T02:55:26.986Z,72.01
2022-09-06T02:57:53.432Z,72.00
2022-09-06T03:00:19.819Z,71.24
2022-09-06T03:02:46.238Z,71.57
2022-09-06T03:05:12.567Z,71.93
2022-09-06T03:07:38.960Z,72.28
2022-09-06T03:10:05.326Z,72.20
2022-09-06T03:12:31.715Z,72.49
2022-09-06T03:14:58.116Z,72.92
2022-09-06T03:17:24.574Z,73.52
2022-09-06T03:19:51.021Z,73.88
2022-09-06T03:22:17.452Z,74.12
2022-09-06T03:24:43.884Z,74.36
2022-09-06T03:27:10.309Z,74.31
2022-09-06T03:29:36.705Z,73.98
2022-09-06T03:32:03.068Z,73.94
2022-09-06T03:34:29.439Z,74.22
2022-09-06T03:36:55.825Z,74.18
2022-09-06T03:39:22.212Z,74.23
2022-09-06T03:41:48.590Z,74.28
2022-09-06T03:44:14.955Z,73.69
2022-09-06T03:46:41.358Z,73.03
2022-09-06T03:49:07.803Z,72.59
2022-09-06T03:51:34.163Z,72.69
2022-09-06T03:54:00.567Z,73.31
2022-09-06T03:56:26.999Z,73.30
2022-09-06T03:58:53.433Z,73.46
2022-09-06T04:01:19.930Z,73.93
2022-09-06T04:03:46.307Z,73.40
2022-09-06T04:06:12.688Z,73.19
2022-09-06T04:08:39.186Z,73.41
2022-09-06T04:11:05.549Z,73.34
2022-09-06T04:13:31.908Z,73.23
2022-09-06T04:15:58.359Z,73.66
2022-09-06T04:18:24.761Z,73.85
2022-09-06T04:20:51.103Z,73.83
2022-09-06T04:23:17.558Z,73.16
2022-09-06T04:25:43.934Z,72.69
2022-09-06T04:28:10.302Z,72.56
2022-09-06T04:30:36.685Z,72.18
2022-09-06T04:33:03.057Z,71.81
2022-09-06T04:35:29.518Z,71.75
2022-09-06T04:37:55.886Z,71.64
2022-09-06T04:40:22.251Z,71.52
2022-09-06T04:42:48.628Z,71.43
2022-09-06T04:45:14.987Z,71.36
2022-09-06T04:47:41.371Z,71.28
2022-09-06T04:50:07.769Z,71.17
2022-09-06T04:52:34.135Z,70.65
2022-09-06T04:55:00.518Z,70.60
2022-09-06T04:57:26.886Z,70.30
2022-09-06T04:59:53.265Z,69.98
2022-09-06T05:02:19.690Z,69.43
2022-09-06T05:04:46.014Z,69.16
2022-09-06T05:07:12.429Z,68.71
2022-09-06T05:09:38.772Z,68.30
2022-09-06T05:12:05.302Z,68.14
2022-09-06T05:14:31.663Z,67.91
2022-09-06T05:16:58.177Z,67.41
2022-09-06T05:19:24.498Z,67.21
2022-09-06T05:21:50.862Z,66.75
2022-09-06T05:24:17.227Z,66.43
2022-09-06T05:26:43.594Z,66.29
2022-09-06T05:29:10.003Z,65.86
2022-09-06T05:31:36.406Z,65.56
2022-09-06T05:34:02.782Z,65.24
2022-09-06T05:36:29.161Z,64.77
2022-09-06T05:38:55.522Z,64.37
2022-09-06T05:41:21.897Z,63.62
2022-09-06T05:43:48.315Z,63.42
2022-09-06T05:46:14.724Z,63.46
2022-09-06T05:48:41.159Z,63.07
2022-09-06T05:51:07.524Z,62.75
2022-09-06T05:53:33.886Z,62.34
2022-09-06T05:56:00.257Z,61.56
2022-09-06T05:58:26.640Z,60.93
2022-09-06T06:00:53.073Z,60.78
2022-09-06T06:03:19.407Z,60.03
2022-09-06T06:05:45.777Z,62.28
2022-09-06T06:08:12.200Z,64.50
2022-09-06T06:10:38.817Z,62.42
2022-09-06T06:13:05.049Z,62.46
2022-09-06T06:15:31.539Z,63.58
2022-09-06T06:17:57.897Z,61.83
2022-09-06T06:20:24.299Z,64.25
2022-09-06T06:22:50.678Z,65.97
2022-09-06T06:25:17.040Z,65.45
2022-09-06T06:27:43.411Z,63.20
2022-09-06T06:30:09.827Z,62.24
2022-09-06T06:32:36.223Z,61.91
2022-09-06T06:35:02.697Z,62.30
2022-09-06T06:37:29.091Z,61.54
2022-09-06T06:39:55.511Z,60.30
2022-09-06T06:42:21.869Z,61.46
2022-09-06T06:44:48.322Z,62.09
2022-09-06T06:47:14.720Z,63.89
2022-09-06T06:49:41.186Z,63.51
2022-09-06T06:52:07.545Z,63.09
2022-09-06T06:54:33.922Z,62.07
2022-09-06T06:57:00.310Z,59.35
2022-09-06T06:59:26.756Z,61.44
2022-09-06T07:01:53.389Z,62.50
2022-09-06T07:04:19.525Z,62.69
2022-09-06T07:09:12.309Z,53.08
2022-09-06T07:11:38.677Z,55.18
2022-09-06T07:14:05.047Z,56.13
2022-09-06T07:16:31.507Z,55.01
2022-09-06T07:18:57.822Z,55.78
2022-09-06T07:21:39.645Z,54.95
2022-09-06T07:24:06.805Z,53.55
2022-09-06T07:26:17.068Z,53.49
2022-09-06T07:28:43.580Z,53.50
2022-09-06T07:33:36.177Z,51.78
2022-09-06T07:36:02.566Z,51.05
2022-09-06T07:38:28.949Z,50.45
2022-09-06T07:40:55.339Z,51.21
2022-09-06T07:43:21.787Z,52.30
2022-09-06T07:45:48.132Z,53.07
2022-09-06T07:48:14.500Z,50.83
2022-09-06T07:50:49.081Z,52.27
2022-09-06T07:53:08.335Z,51.31
2022-09-06T07:55:33.663Z,54.02
2022-09-06T07:58:00.036Z,54.41
2022-09-06T08:00:26.409Z,53.28
2022-09-06T08:02:52.765Z,50.94
2022-09-06T08:07:45.574Z,50.40
2022-09-06T08:10:13.156Z,49.76
2022-09-06T08:12:38.323Z,48.39
2022-09-06T08:15:04.731Z,46.13
2022-09-06T08:17:31.092Z,46.19
2022-09-06T08:19:57.465Z,47.80
2022-09-06T08:22:23.889Z,49.13
2022-09-06T08:24:50.329Z,48.16
2022-09-06T08:27:16.691Z,47.85
2022-09-06T08:29:43.100Z,47.89
2022-09-06T08:32:09.486Z,46.49
2022-09-06T08:34:35.862Z,46.01
2022-09-06T08:37:02.255Z,46.04
2022-09-06T08:39:28.675Z,45.73
2022-09-06T08:41:55.037Z,46.30
2022-09-06T08:46:48.004Z,45.17
2022-09-06T08:49:14.366Z,45.16
2022-09-06T08:51:40.735Z,43.11
2022-09-06T08:54:07.105Z,41.93
2022-09-06T08:56:33.481Z,41.71
2022-09-06T08:58:59.876Z,42.44
2022-09-06T09:01:26.320Z,43.29
2022-09-06T09:03:52.705Z,43.78
2022-09-06T09:06:19.091Z,42.80
2022-09-06T09:08:45.481Z,40.89
2022-09-06T09:11:11.863Z,40.70
2022-09-06T09:13:38.237Z,41.65
2022-09-06T09:16:04.667Z,40.36
2022-09-06T09:18:31.008Z,40.26
2022-09-06T09:20:57.390Z,40.77
2022-09-06T09:23:23.807Z,40.21
2022-09-06T09:25:50.187Z,40.96
2022-09-06T09:28:16.551Z,40.50
2022-09-06T09:33:09.402Z,38.91
2022-09-06T09:35:35.789Z,38.06
2022-09-06T09:38:07.853Z,38.42
2022-09-06T09:40:28.530Z,37.62
2022-09-06T09:42:54.904Z,37.66
2022-09-06T09:45:21.269Z,38.41
2022-09-06T09:47:47.729Z,38.46
2022-09-06T09:50:14.127Z,38.97
2022-09-06T09:52:40.462Z,38.45
2022-09-06T09:55:06.826Z,38.11
2022-09-06T09:57:33.196Z,37.70
2022-09-06T09:59:59.581Z,36.54
2022-09-06T10:02:25.945Z,35.62
2022-09-06T10:04:52.313Z,35.57
2022-09-06T10:07:18.720Z,34.35
2022-09-06T10:09:45.098Z,35.61
2022-09-06T10:12:11.553Z,35.22
2022-09-06T10:14:37.941Z,34.02
2022-09-06T10:17:04.329Z,33.45
2022-09-06T10:19:30.713Z,34.38
2022-09-06T10:21:57.168Z,34.62
2022-09-06T10:24:26.889Z,34.87
2022-09-06T10:26:50.046Z,34.22
2022-09-06T10:29:16.475Z,34.76
2022-09-06T10:31:42.990Z,33.62
2022-09-06T10:34:09.267Z,33.64
2022-09-06T10:36:35.633Z,34.56
2022-09-06T10:39:04.124Z,35.31
2022-09-06T10:41:28.389Z,36.07
2022-09-06T10:43:54.870Z,36.21
2022-09-06T10:46:21.273Z,36.36
2022-09-06T10:48:47.734Z,34.62
2022-09-06T10:51:14.093Z,35.42
2022-09-06T10:53:40.503Z,33.74
2022-09-06T10:56:06.932Z,31.03
2022-09-06T11:00:59.675Z,30.46
2022-09-06T11:05:52.421Z,32.99
2022-09-06T11:08:49.676Z,33.97
2022-09-06T11:10:45.224Z,33.72
2022-09-06T11:13:11.584Z,33.49
2022-09-06T11:15:37.977Z,33.52
2022-09-06T11:18:04.338Z,33.08
2022-09-06T11:20:32.332Z,34.26
2022-09-06T11:22:57.136Z,34.71
2022-09-06T11:25:23.768Z,36.42
2022-09-06T11:27:50.123Z,36.38
2022-09-06T11:30:16.585Z,35.48
2022-09-06T11:32:42.943Z,34.36
2022-09-06T11:35:09.342Z,31.92
2022-09-06T11:37:35.727Z,30.03
2022-09-06T11:42:28.646Z,30.65
2022-09-06T11:44:55.080Z,30.19
2022-09-06T11:47:21.479Z,30.85
2022-09-06T11:49:47.875Z,31.03
2022-09-06T11:52:14.239Z,32.34
2022-09-06T11:54:40.710Z,33.06
2022-09-06T11:57:07.077Z,33.47
2022-09-06T11:59:33.474Z,32.75
2022-09-06T12:01:59.882Z,33.11
2022-09-06T12:04:26.255Z,33.28
2022-09-06T12:06:52.642Z,33.67
2022-09-06T12:09:19.032Z,31.69
2022-09-06T12:11:45.409Z,32.17
2022-09-06T12:14:11.837Z,32.11
2022-09-06T12:16:38.238Z,33.21
2022-09-06T12:19:04.693Z,33.57
2022-09-06T12:21:31.087Z,33.71
2022-09-06T12:23:57.458Z,33.88
2022-09-06T12:26:23.819Z,33.99
2022-09-06T12:28:50.195Z,33.49
2022-09-06T12:31:18.376Z,32.89
2022-09-06T12:33:43.025Z,33.50
2022-09-06T12:36:09.389Z,34.21
2022-09-06T12:38:35.819Z,33.03
2022-09-06T12:41:02.183Z,34.02
2022-09-06T12:43:28.655Z,34.07
2022-09-06T12:45:55.038Z,34.14
2022-09-06T12:48:21.423Z,33.41
2022-09-06T12:50:47.780Z,33.15
2022-09-06T12:53:15.918Z,34.03
2022-09-06T12:55:40.676Z,33.93
2022-09-06T12:58:07.070Z,34.23
2022-09-06T13:00:33.632Z,34.40
2022-09-06T13:03:00.137Z,34.50
2022-09-06T13:05:26.394Z,34.78
2022-09-06T13:07:52.883Z,34.85
2022-09-06T13:10:19.261Z,34.77
2022-09-06T13:12:45.630Z,34.74
2022-09-06T13:15:11.992Z,34.62
2022-09-06T13:17:38.385Z,35.00
2022-09-06T13:20:04.779Z,35.00
2022-09-06T13:22:31.176Z,34.87
2022-09-06T13:24:57.610Z,35.09
2022-09-06T13:27:24.068Z,34.67
2022-09-06T13:29:50.383Z,34.94
2022-09-06T13:32:16.763Z,35.71
2022-09-06T13:34:43.236Z,35.65
2022-09-06T13:37:09.671Z,35.74
2022-09-06T13:39:36.088Z,35.63
2022-09-06T13:42:02.439Z,36.38
2022-09-06T13:44:28.835Z,36.78
2022-09-06T13:46:55.314Z,36.76
2022-09-06T13:49:21.664Z,36.85
2022-09-06T13:51:48.036Z,36.98
2022-09-06T13:54:14.424Z,37.18
2022-09-06T13:56:40.809Z,36.41
2022-09-06T13:59:07.184Z,37.03
2022-09-06T14:01:33.656Z,37.39
2022-09-06T14:04:00.024Z,37.43
2022-09-06T14:06:26.458Z,37.72
2022-09-06T14:09:08.844Z,37.15
2022-09-06T14:11:19.231Z,37.14
2022-09-06T14:13:45.610Z,37.96
2022-09-06T14:16:12.077Z,38.07
2022-09-06T14:18:38.345Z,38.37
2022-09-06T14:21:04.751Z,38.34
2022-09-06T14:23:31.260Z,38.96
2022-09-06T14:25:57.619Z,38.68
2022-09-06T14:28:24.255Z,39.29
2022-09-06T14:30:50.646Z,39.79
2022-09-06T14:33:16.962Z,40.14
2022-09-06T14:35:43.451Z,40.10
2022-09-06T14:38:09.830Z,40.14
2022-09-06T14:40:36.224Z,40.44
2022-09-06T14:43:02.645Z,40.71
2022-09-06T14:45:29.087Z,40.97
2022-09-06T14:47:55.442Z,41.22
2022-09-06T14:50:21.846Z,41.48
2022-09-06T14:52:48.257Z,41.58
2022-09-06T14:55:14.633Z,41.91
2022-09-06T14:57:40.995Z,42.18
2022-09-06T15:00:07.407Z,42.22
2022-09-06T15:02:33.836Z,42.31
2022-09-06T15:05:00.237Z,42.34
2022-09-06T15:07:26.663Z,42.78
2022-09-06T15:09:53.129Z,42.45
2022-09-06T15:12:19.529Z,42.42
2022-09-06T15:14:45.909Z,42.58
2022-09-06T15:17:12.277Z,42.78
2022-09-06T15:19:38.687Z,42.97
2022-09-06T15:22:05.062Z,43.27
2022-09-06T15:24:31.436Z,43.49
2022-09-06T15:26:57.817Z,44.00
2022-09-06T15:29:24.185Z,44.03
2022-09-06T15:31:50.619Z,44.29
2022-09-06T15:34:16.959Z,44.45
2022-09-06T15:36:43.315Z,44.44
2022-09-06T15:39:09.682Z,44.52
2022-09-06T15:41:36.079Z,44.66
2022-09-06T15:44:02.560Z,44.99
2022-09-06T15:46:28.998Z,45.16
2022-09-06T15:48:55.419Z,44.67
2022-09-06T15:51:21.783Z,45.07
2022-09-06T15:53:48.153Z,45.23
2022-09-06T15:56:14.571Z,45.42
2022-09-06T15:58:41.040Z,45.70
2022-09-06T16:01:07.499Z,45.67
2022-09-06T16:03:33.809Z,45.90
2022-09-06T16:08:26.603Z,46.02
2022-09-06T16:10:53.108Z,46.18
2022-09-06T16:13:19.474Z,46.22
2022-09-06T16:15:45.862Z,46.72
2022-09-06T16:18:12.233Z,46.41
2022-09-06T16:20:38.621Z,46.81
2022-09-06T16:23:05.070Z,46.72
2022-09-06T16:25:31.431Z,46.90
2022-09-06T16:27:57.834Z,47.11
2022-09-06T16:30:24.212Z,47.22
2022-09-06T16:32:50.577Z,47.45
2022-09-06T16:35:16.967Z,47.79
2022-09-06T16:37:43.335Z,47.71
2022-09-06T16:40:09.867Z,47.83
2022-09-06T16:42:36.194Z,47.80
2022-09-06T16:45:02.668Z,47.92
2022-09-06T16:47:29.034Z,48.11
2022-09-06T16:49:55.404Z,48.37
2022-09-06T16:52:21.866Z,48.63
2022-09-06T16:54:48.289Z,48.87
2022-09-06T16:57:14.731Z,49.25
2022-09-06T16:59:41.107Z,49.01
2022-09-06T17:02:07.517Z,48.61
2022-09-06T17:04:33.850Z,49.03
2022-09-06T17:07:00.355Z,49.07
2022-09-06T17:09:26.712Z,49.14
2022-09-06T17:11:53.081Z,48.81
2022-09-06T17:14:19.483Z,48.84
2022-09-06T17:16:45.899Z,48.94
2022-09-06T17:19:12.312Z,48.93
2022-09-06T17:21:38.698Z,49.00
2022-09-06T17:24:05.066Z,49.17
2022-09-06T17:26:31.439Z,49.35
2022-09-06T17:28:57.803Z,49.68
2022-09-06T17:31:26.003Z,49.73
2022-09-06T17:33:50.587Z,50.12
2022-09-06T17:36:17.042Z,50.28
2022-09-06T17:38:43.400Z,50.26
2022-09-06T17:41:09.906Z,50.40
2022-09-06T17:43:36.328Z,50.40
2022-09-06T17:46:02.807Z,50.43
2022-09-06T17:48:29.282Z,50.68
2022-09-06T17:50:55.629Z,50.73
2022-09-06T17:53:22.049Z,51.10
2022-09-06T17:55:48.506Z,51.34
2022-09-06T17:58:14.864Z,51.25
2022-09-06T18:00:41.234Z,51.30
2022-09-06T18:03:07.624Z,51.19
2022-09-06T18:05:34.129Z,51.31
2022-09-06T18:08:00.516Z,51.56
2022-09-06T18:10:27.000Z,51.50
2022-09-06T18:12:53.383Z,51.44
2022-09-06T18:15:19.865Z,51.53
2022-09-06T18:17:46.229Z,51.44
2022-09-06T18:20:12.623Z,51.53
2022-09-06T18:22:39.064Z,51.67
2022-09-06T18:25:05.493Z,51.41
2022-09-06T18:27:31.860Z,51.45
2022-09-06T18:29:58.256Z,51.70
2022-09-06T18:32:24.841Z,51.42
2022-09-06T18:34:51.511Z,51.72
2022-09-06T18:37:17.966Z,52.09
2022-09-06T18:39:44.397Z,52.15
2022-09-06T18:42:10.874Z,52.11
2022-09-06T18:44:37.238Z,52.11
2022-09-06T18:47:03.868Z,52.32
2022-09-06T18:49:30.388Z,52.50
2022-09-06T18:51:56.903Z,52.49
2022-09-06T18:54:23.577Z,52.38
2022-09-06T18:56:50.174Z,52.45
2022-09-06T18:59:16.755Z,52.39
2022-09-06T19:01:45.825Z,52.42
2022-09-06T19:04:10.028Z,52.51
2022-09-06T19:06:36.700Z,52.27
2022-09-06T19:09:03.302Z,52.35
2022-09-06T19:11:29.955Z,52.47
2022-09-06T19:13:56.583Z,52.48
2022-09-06T19:16:23.341Z,52.75
2022-09-06T19:18:49.853Z,52.99
2022-09-06T19:21:17.539Z,52.86
2022-09-06T19:23:43.057Z,52.89
2022-09-06T19:26:09.663Z,52.90
2022-09-06T19:28:35.991Z,52.80
2022-09-06T19:31:02.611Z,52.90
2022-09-06T19:33:31.968Z,52.91
2022-09-06T19:36:10.355Z,52.92
2022-09-06T19:38:22.238Z,53.17
2022-09-06T19:40:48.728Z,53.27
2022-09-06T19:43:15.095Z,53.33
2022-09-06T19:45:41.582Z,53.46
2022-09-06T19:48:08.009Z,53.68
2022-09-06T19:50:34.388Z,53.75
2022-09-06T19:53:04.168Z,53.71
2022-09-06T19:55:27.213Z,53.77
2022-09-06T19:57:53.581Z,53.73
2022-09-06T20:00:20.064Z,53.76
2022-09-06T20:02:46.511Z,53.85
2022-09-06T20:05:12.936Z,53.85
2022-09-06T20:07:39.369Z,53.99
2022-09-06T20:10:05.733Z,54.09
2022-09-06T20:12:32.135Z,54.12
2022-09-06T20:14:58.518Z,54.14
2022-09-06T20:17:34.141Z,54.31
2022-09-06T20:19:51.298Z,54.36
2022-09-06T20:22:17.660Z,54.59
2022-09-06T20:24:44.026Z,54.50
2022-09-06T20:27:10.532Z,54.81
2022-09-06T20:29:36.896Z,54.82
2022-09-06T20:32:03.323Z,54.75
2022-09-06T20:34:29.675Z,54.60
2022-09-06T20:36:56.050Z,55.01
2022-09-06T20:39:22.421Z,55.40
2022-09-06T20:41:48.788Z,55.41
2022-09-06T20:44:15.180Z,55.43
2022-09-06T20:46:41.635Z,55.55
2022-09-06T21:02:04.458Z,57.01
2022-09-06T21:04:30.804Z,57.02
2022-09-06T21:06:57.283Z,57.12
2022-09-06T21:09:23.713Z,57.48
2022-09-06T21:11:50.078Z,57.08
2022-09-06T21:14:16.458Z,57.46
2022-09-06T21:16:42.899Z,58.15
2022-09-06T21:19:09.187Z,58.36
2022-09-06T21:21:35.566Z,58.51
2022-09-06T21:24:01.971Z,58.36
2022-09-06T21:26:28.433Z,58.57
2022-09-06T21:28:54.795Z,58.77
2022-09-06T21:31:21.249Z,58.84
2022-09-06T21:33:47.594Z,58.67
2022-09-06T21:36:13.982Z,58.56
2022-09-06T21:38:40.342Z,58.83
2022-09-06T21:41:06.719Z,59.13
2022-09-06T21:43:33.166Z,59.36
2022-09-06T21:45:59.559Z,59.44
2022-09-06T21:48:25.961Z,59.64
2022-09-06T21:50:52.320Z,59.52
2022-09-06T21:53:18.684Z,59.89
2022-09-06T21:55:45.057Z,59.95
2022-09-06T21:58:11.489Z,60.01
2022-09-06T22:00:37.901Z,60.21
2022-09-06T22:03:04.192Z,60.35
2022-09-06T22:05:30.654Z,60.41
2022-09-06T22:07:57.010Z,60.37
2022-09-06T22:10:23.396Z,60.47
2022-09-06T22:12:49.774Z,60.59
2022-09-06T22:15:16.177Z,60.80
2022-09-06T22:17:42.557Z,60.86
2022-09-06T22:20:08.922Z,60.91
2022-09-06T22:22:35.322Z,60.89
2022-09-06T22:25:01.692Z,60.75
2022-09-06T22:27:28.055Z,60.77
2022-09-06T22:29:54.446Z,60.66
2022-09-06T22:32:20.904Z,60.73
2022-09-06T22:34:47.305Z,60.42
2022-09-06T22:37:13.682Z,60.80
2022-09-06T22:39:40.147Z,61.13
2022-09-06T22:42:06.452Z,61.37
2022-09-06T22:44:32.817Z,61.35
2022-09-06T22:46:59.279Z,61.33
2022-09-06T22:49:25.631Z,61.48
2022-09-06T22:51:51.984Z,61.55
2022-09-06T22:54:18.353Z,61.82
2022-09-06T22:56:44.827Z,61.63
2022-09-06T22:59:11.199Z,62.17
2022-09-06T23:01:37.596Z,62.23
2022-09-06T23:04:04.028Z,62.10
2022-09-06T23:06:30.408Z,62.09
2022-09-06T23:08:56.802Z,62.24
2022-09-06T23:11:23.217Z,62.18
2022-09-06T23:13:49.601Z,62.30
2022-09-06T23:16:16.119Z,62.22
2022-09-06T23:18:42.448Z,62.08
2022-09-06T23:21:08.848Z,62.42
2022-09-06T23:23:35.245Z,61.87
2022-09-06T23:26:01.582Z,62.06
2022-09-06T23:28:28.060Z,61.91
2022-09-06T23:30:54.478Z,62.10
2022-09-06T23:33:20.837Z,62.51
2022-09-06T23:35:47.203Z,62.56
2022-09-06T23:38:13.674Z,62.76
2022-09-06T23:40:40.037Z,62.67
2022-09-06T23:43:06.441Z,62.76
2022-09-06T23:45:32.800Z,62.68
2022-09-06T23:47:59.218Z,62.51
2022-09-06T23:50:25.582Z,62.64
2022-09-06T23:52:51.949Z,62.64
2022-09-06T23:55:18.397Z,62.51
2022-09-06T23:57:44.781Z,62.57
